aviador You're here:

KBVE Decoded Metar

BOOTHVILLE in LA, USA
Report Time2018-05-26 14:51:00
UTC Time2018-05-26 15:40:24
Flight Rules vfr VFR
WindVRB at 04 kt
Visibility9999 m
Phenomena:N/A
Clouds:N/A
Expected CloudBase > 2,400 ft AGL from Temp-Dew spread
CeilingNone
Temp29°C (ISA +14)
Dew Point23°C (70% RH)
Heat Index32.7°C
QNH1013 hPa
Density Alt1,982 ft
Elevation3 ft
Report Wrong Elevation
Raw Report
KBVE 261451Z AUTO VRB04KT 10SM CLR 29/23 A2992 RMK AO2 SLP131
T02890228 51011=

Extra information for KBVE:More info

Metar Taf Metar & Taf Last 4 Metars F.Rules Stats Wind Profile Meteogram Temp Stats Airport Information Weather charts Add Link Nearby VenuesMetar ALERT Operation Metar Decoded Social comments

AIRNAV info for KBVE